createdAt,value
2022-12-06T00:01:25.370Z,11.43
2022-12-06T00:06:23.752Z,4.20
2022-12-06T00:08:51.878Z,7.13
2022-12-06T00:11:24.905Z,3.53
2022-12-06T00:14:06.600Z,2.63
2022-12-06T00:16:35.341Z,5.03
2022-12-06T00:19:03.365Z,2.92
2022-12-06T00:21:32.637Z,4.25
2022-12-06T00:24:03.477Z,5.65
2022-12-06T00:26:31.387Z,6.78
2022-12-06T00:29:01.177Z,4.13
2022-12-06T00:31:30.541Z,8.20
2022-12-06T00:33:58.098Z,2.25
2022-12-06T00:36:28.929Z,5.15
2022-12-06T00:38:59.202Z,5.07
2022-12-06T00:41:26.851Z,4.13
2022-12-06T00:43:54.567Z,3.25
2022-12-06T00:46:24.629Z,6.85
2022-12-06T00:48:53.490Z,5.72
2022-12-06T00:51:22.632Z,6.65
2022-12-06T00:53:50.601Z,2.90
2022-12-06T00:56:19.062Z,4.85
2022-12-06T00:58:47.209Z,10.25
2022-12-06T01:01:21.532Z,4.40
2022-12-06T01:03:52.261Z,4.47
2022-12-06T01:06:23.872Z,2.83
2022-12-06T01:08:51.240Z,4.60
2022-12-06T01:11:18.822Z,3.17
2022-12-06T01:13:46.001Z,4.82
2022-12-06T01:16:19.729Z,3.28
2022-12-06T01:18:47.300Z,5.07
2022-12-06T01:21:18.078Z,5.93
2022-12-06T01:23:47.009Z,4.55
2022-12-06T01:26:24.054Z,8.70
2022-12-06T01:28:51.617Z,2.25
2022-12-06T01:31:19.400Z,5.18
2022-12-06T01:33:47.320Z,5.05
2022-12-06T01:36:23.375Z,5.88
2022-12-06T01:38:52.350Z,2.28
2022-12-06T01:41:21.512Z,3.90
2022-12-06T01:43:49.178Z,3.20
2022-12-06T01:46:32.090Z,7.15
2022-12-06T01:49:03.643Z,6.30
2022-12-06T01:51:31.231Z,5.15
2022-12-06T01:54:01.635Z,4.50
2022-12-06T01:56:29.192Z,4.07
2022-12-06T01:58:59.152Z,3.53
2022-12-06T02:01:28.529Z,10.60
2022-12-06T02:03:58.711Z,4.13
2022-12-06T02:06:26.159Z,3.38
2022-12-06T02:08:54.962Z,3.05
2022-12-06T02:11:22.129Z,2.75
2022-12-06T02:13:49.510Z,3.58
2022-12-06T02:17:03.358Z,8.68
2022-12-06T02:19:54.127Z,3.30
2022-12-06T02:22:24.307Z,4.72
2022-12-06T02:24:51.432Z,7.50
2022-12-06T02:27:50.301Z,6.80
2022-12-06T02:30:43.462Z,2.42
2022-12-06T02:33:18.192Z,5.97
2022-12-06T02:36:15.264Z,8.20
2022-12-06T02:38:53.695Z,6.50
2022-12-06T02:41:27.381Z,1.85
2022-12-06T02:44:07.911Z,7.13
2022-12-06T02:46:38.316Z,9.95
2022-12-06T02:49:07.947Z,5.63
2022-12-06T02:51:37.578Z,3.25
2022-12-06T02:54:07.725Z,4.15
2022-12-06T02:56:35.673Z,4.03
2022-12-06T02:59:02.962Z,2.85
2022-12-06T03:01:33.327Z,1.70
2022-12-06T03:04:33.303Z,3.13
2022-12-06T03:07:03.626Z,8.02
2022-12-06T03:09:54.750Z,3.30
2022-12-06T03:12:33.507Z,2.47
2022-12-06T03:15:12.792Z,4.00
2022-12-06T03:17:48.316Z,3.28
2022-12-06T03:20:29.325Z,4.28
2022-12-06T03:23:05.473Z,8.07
2022-12-06T03:25:35.677Z,4.85
2022-12-06T03:28:04.820Z,5.75
2022-12-06T03:30:34.275Z,1.77
2022-12-06T03:33:02.927Z,6.18
2022-12-06T03:35:34.638Z,3.03
2022-12-06T03:38:08.996Z,4.25
2022-12-06T03:40:39.433Z,6.32
2022-12-06T03:43:07.191Z,7.97
2022-12-06T03:45:47.020Z,4.20
2022-12-06T03:48:21.774Z,4.00
2022-12-06T03:50:59.171Z,5.22
2022-12-06T03:53:26.760Z,4.28
2022-12-06T03:55:53.985Z,5.60
2022-12-06T03:58:21.588Z,5.50
2022-12-06T04:00:48.882Z,4.57
2022-12-06T04:03:16.120Z,4.63
2022-12-06T04:05:43.319Z,5.35
2022-12-06T04:08:10.605Z,5.00
2022-12-06T04:10:37.805Z,1.65
2022-12-06T04:13:06.319Z,6.00
2022-12-06T04:15:38.128Z,5.20
2022-12-06T04:18:16.466Z,5.20
2022-12-06T04:21:06.628Z,10.38
2022-12-06T04:23:39.185Z,9.07
2022-12-06T04:26:08.567Z,7.82
2022-12-06T04:28:54.847Z,9.82
2022-12-06T04:31:41.167Z,5.78
2022-12-06T04:34:27.406Z,4.65
2022-12-06T04:37:14.165Z,5.28
2022-12-06T04:39:41.622Z,8.20
2022-12-06T04:42:28.313Z,4.38
2022-12-06T04:44:55.785Z,6.05
2022-12-06T04:47:23.432Z,5.45
2022-12-06T04:49:50.744Z,8.88
2022-12-06T04:52:18.360Z,5.25
2022-12-06T04:54:45.591Z,4.50
2022-12-06T04:57:14.434Z,4.75
2022-12-06T04:59:43.152Z,4.75
2022-12-06T05:02:13.591Z,7.00
2022-12-06T05:04:40.866Z,4.60
2022-12-06T05:07:09.871Z,4.10
2022-12-06T05:09:37.155Z,7.22
2022-12-06T05:12:04.447Z,6.07
2022-12-06T05:14:31.897Z,2.63
2022-12-06T05:16:59.175Z,5.35
2022-12-06T05:19:27.387Z,2.42
2022-12-06T05:21:54.616Z,2.85
2022-12-06T05:24:21.980Z,8.55
2022-12-06T05:26:49.170Z,3.42
2022-12-06T05:29:16.719Z,2.95
2022-12-06T05:31:43.968Z,3.33
2022-12-06T05:34:11.321Z,3.40
2022-12-06T05:36:38.507Z,4.22
2022-12-06T05:39:05.859Z,5.50
2022-12-06T05:41:33.192Z,2.65
2022-12-06T05:44:00.358Z,1.48
2022-12-06T05:46:27.762Z,2.25
2022-12-06T05:48:54.984Z,5.25
2022-12-06T05:51:22.199Z,14.25
2022-12-06T05:53:49.341Z,4.68
2022-12-06T05:56:16.657Z,2.63
2022-12-06T05:58:43.836Z,2.42
2022-12-06T06:01:11.065Z,1.90
2022-12-06T06:03:43.815Z,7.88
2022-12-06T06:06:14.544Z,1.35
2022-12-06T06:08:41.931Z,4.35
2022-12-06T06:11:09.131Z,4.30
2022-12-06T06:13:36.348Z,2.85
2022-12-06T06:16:03.797Z,4.80
2022-12-06T06:18:30.999Z,7.00
2022-12-06T06:21:00.217Z,3.40
2022-12-06T06:23:28.605Z,3.65
2022-12-06T06:25:56.650Z,5.80
2022-12-06T06:28:24.313Z,2.63
2022-12-06T06:30:51.766Z,3.22
2022-12-06T06:33:19.186Z,3.45
2022-12-06T06:35:46.356Z,4.85
2022-12-06T06:38:13.599Z,4.25
2022-12-06T06:40:40.917Z,1.42
2022-12-06T06:43:22.688Z,10.40
2022-12-06T06:45:58.313Z,1.60
2022-12-06T06:48:26.997Z,1.17
2022-12-06T06:50:57.550Z,4.22
2022-12-06T06:53:27.911Z,5.50
2022-12-06T06:55:55.556Z,7.43
2022-12-06T06:58:25.113Z,10.50
2022-12-06T07:00:55.300Z,8.07
2022-12-06T07:03:23.783Z,3.50
2022-12-06T07:06:02.382Z,3.65
2022-12-06T07:08:31.934Z,3.20
2022-12-06T07:10:59.318Z,6.90
2022-12-06T07:13:28.086Z,2.92
2022-12-06T07:15:55.356Z,3.80
2022-12-06T07:18:22.742Z,4.40
2022-12-06T07:20:57.565Z,4.13
2022-12-06T07:23:24.855Z,4.15
2022-12-06T07:26:03.352Z,3.55
2022-12-06T07:28:30.749Z,5.35
2022-12-06T07:30:58.085Z,5.05
2022-12-06T07:33:25.275Z,5.65
2022-12-06T07:38:42.825Z,5.10
2022-12-06T07:41:31.129Z,4.43
2022-12-06T07:44:17.874Z,0.90
2022-12-06T07:46:46.119Z,11.38
2022-12-06T07:49:15.820Z,2.22
2022-12-06T07:51:45.996Z,7.85
2022-12-06T07:54:13.894Z,3.08
2022-12-06T07:56:41.788Z,5.15
2022-12-06T07:59:09.340Z,4.05
2022-12-06T08:01:36.816Z,3.00
2022-12-06T08:04:05.450Z,3.20
2022-12-06T08:06:34.247Z,1.88
2022-12-06T08:09:01.603Z,3.85
2022-12-06T08:11:29.016Z,2.03
2022-12-06T08:13:56.293Z,2.90
2022-12-06T08:16:23.715Z,1.73
2022-12-06T08:18:52.714Z,6.05
2022-12-06T08:21:20.030Z,0.50
2022-12-06T08:23:47.298Z,2.10
2022-12-06T08:26:16.101Z,4.57
2022-12-06T08:28:43.588Z,3.65
2022-12-06T08:31:16.860Z,5.00
2022-12-06T08:33:44.701Z,2.97
2022-12-06T08:36:14.826Z,11.75
2022-12-06T08:38:42.615Z,6.88
2022-12-06T08:41:30.408Z,2.45
2022-12-06T08:43:59.012Z,6.00
2022-12-06T08:46:27.004Z,4.85
2022-12-06T08:48:54.349Z,2.25
2022-12-06T08:51:21.931Z,3.03
2022-12-06T08:53:49.197Z,4.93
2022-12-06T08:56:16.448Z,3.28
2022-12-06T08:58:43.681Z,5.13
2022-12-06T09:01:16.842Z,11.63
2022-12-06T09:03:44.339Z,6.75
2022-12-06T09:06:12.240Z,7.75
2022-12-06T09:08:39.498Z,7.88
2022-12-06T09:11:08.705Z,2.20
2022-12-06T09:13:37.901Z,4.43
2022-12-06T09:16:10.704Z,13.13
2022-12-06T09:18:38.540Z,4.72
2022-12-06T09:21:07.386Z,5.85
2022-12-06T09:23:35.885Z,12.73
2022-12-06T09:26:04.536Z,7.32
2022-12-06T09:28:34.047Z,6.60
2022-12-06T09:31:02.801Z,8.05
2022-12-06T09:33:30.153Z,5.05
2022-12-06T09:35:59.685Z,7.00
2022-12-06T09:38:29.975Z,7.38
2022-12-06T09:41:15.882Z,5.32
2022-12-06T09:44:07.127Z,8.00
2022-12-06T09:46:44.452Z,5.50
2022-12-06T09:49:43.552Z,7.90
2022-12-06T09:53:11.829Z,4.75
2022-12-06T09:55:57.387Z,7.95
2022-12-06T09:58:37.181Z,6.78
2022-12-06T10:01:26.305Z,7.05
2022-12-06T10:04:15.922Z,3.92
2022-12-06T10:06:49.230Z,2.72
2022-12-06T10:09:35.504Z,5.50
2022-12-06T10:12:08.827Z,3.10
2022-12-06T10:14:44.942Z,4.13
2022-12-06T10:17:21.079Z,8.18
2022-12-06T10:19:54.520Z,3.63
2022-12-06T10:22:49.538Z,8.27
2022-12-06T10:25:26.889Z,6.60
2022-12-06T10:28:06.031Z,3.72
2022-12-06T10:30:36.988Z,6.93
2022-12-06T10:33:30.147Z,6.75
2022-12-06T10:36:06.798Z,3.58
2022-12-06T10:38:56.241Z,1.75
2022-12-06T10:41:33.236Z,7.07
2022-12-06T10:44:06.648Z,6.03
2022-12-06T10:47:05.056Z,6.30
2022-12-06T10:49:42.290Z,11.55
2022-12-06T10:52:33.917Z,6.57
2022-12-06T10:55:10.152Z,6.75
2022-12-06T10:58:20.998Z,3.83
2022-12-06T11:01:09.973Z,3.55
2022-12-06T11:03:42.483Z,3.85
2022-12-06T11:06:20.231Z,4.22
2022-12-06T11:08:52.710Z,2.80
2022-12-06T11:11:32.101Z,3.75
2022-12-06T11:14:07.081Z,5.65
2022-12-06T11:16:41.234Z,5.03
2022-12-06T11:19:23.588Z,5.55
2022-12-06T11:21:58.985Z,6.18
2022-12-06T11:24:32.115Z,4.47
2022-12-06T11:27:22.945Z,2.45
2022-12-06T11:29:50.909Z,4.30
2022-12-06T11:32:18.935Z,4.00
2022-12-06T11:35:06.815Z,1.38
2022-12-06T11:37:34.439Z,2.58
2022-12-06T11:40:28.705Z,8.00
2022-12-06T11:42:59.255Z,2.38
2022-12-06T11:45:27.988Z,4.32
2022-12-06T11:48:01.880Z,2.47
2022-12-06T11:50:32.672Z,7.35
2022-12-06T11:53:04.971Z,2.83
2022-12-06T11:55:36.813Z,4.20
2022-12-06T11:58:09.662Z,4.75
2022-12-06T12:00:37.412Z,3.20
2022-12-06T12:03:04.961Z,5.15
2022-12-06T12:05:38.827Z,3.55
2022-12-06T12:08:18.612Z,2.17
2022-12-06T12:10:57.720Z,3.80
2022-12-06T12:13:44.317Z,2.80
2022-12-06T12:16:28.405Z,9.45
2022-12-06T12:19:23.022Z,10.80
2022-12-06T12:21:54.225Z,3.42
2022-12-06T12:27:45.481Z,6.55
2022-12-06T12:30:16.483Z,10.95
2022-12-06T12:32:45.100Z,7.68
2022-12-06T12:35:21.551Z,6.55
2022-12-06T12:37:51.401Z,7.93
2022-12-06T12:40:39.375Z,3.38
2022-12-06T12:43:12.541Z,6.00
2022-12-06T12:46:02.705Z,7.82
2022-12-06T12:48:30.887Z,5.80
2022-12-06T12:51:00.717Z,10.95
2022-12-06T12:53:32.274Z,4.93
2022-12-06T12:56:13.131Z,6.57
2022-12-06T12:58:41.190Z,9.18
2022-12-06T13:01:19.945Z,6.00
2022-12-06T13:03:51.833Z,6.85
2022-12-06T13:06:48.259Z,11.55
2022-12-06T13:09:25.409Z,5.57
2022-12-06T13:12:03.321Z,4.45
2022-12-06T13:14:32.326Z,7.07
2022-12-06T13:17:06.475Z,2.80
2022-12-06T13:19:41.806Z,3.15
2022-12-06T13:22:16.278Z,4.80
2022-12-06T13:27:19.589Z,3.38
2022-12-06T13:30:01.888Z,4.93
2022-12-06T13:32:40.480Z,3.75
2022-12-06T13:35:30.174Z,2.17
2022-12-06T13:38:03.087Z,2.90
2022-12-06T13:40:33.211Z,3.33
2022-12-06T13:43:02.301Z,1.42
2022-12-06T13:45:41.408Z,5.57
2022-12-06T13:48:27.029Z,6.72
2022-12-06T13:50:59.694Z,5.40
2022-12-06T13:53:29.009Z,2.97
2022-12-06T13:56:03.133Z,5.15
2022-12-06T13:58:30.231Z,4.32
2022-12-06T14:00:57.906Z,4.47
2022-12-06T14:03:28.033Z,2.60
2022-12-06T14:06:13.905Z,2.95
2022-12-06T14:08:43.619Z,4.60
2022-12-06T14:11:16.082Z,5.53
2022-12-06T14:13:46.594Z,5.25
2022-12-06T14:16:28.162Z,1.70
2022-12-06T14:18:55.548Z,3.83
2022-12-06T14:21:38.705Z,3.15
2022-12-06T14:24:06.065Z,1.27
2022-12-06T14:26:34.903Z,5.35
2022-12-06T14:29:02.769Z,1.33
2022-12-06T14:31:40.851Z,4.53
2022-12-06T14:34:28.280Z,1.23
2022-12-06T14:36:56.058Z,3.17
2022-12-06T14:39:32.311Z,2.42
2022-12-06T14:42:20.859Z,2.15
2022-12-06T14:44:57.363Z,5.35
2022-12-06T14:47:27.926Z,2.20
2022-12-06T14:50:19.670Z,4.22
2022-12-06T14:52:58.790Z,4.15
2022-12-06T14:55:29.327Z,4.30
2022-12-06T14:58:02.670Z,2.20
2022-12-06T15:00:47.684Z,0.85
2022-12-06T15:03:17.954Z,1.85
2022-12-06T15:05:57.510Z,0.95
2022-12-06T15:08:27.766Z,5.70
2022-12-06T15:10:58.928Z,1.70
2022-12-06T15:13:27.010Z,2.30
2022-12-06T15:16:03.280Z,0.75
2022-12-06T15:18:37.534Z,6.28
2022-12-06T15:21:16.621Z,4.70
2022-12-06T15:23:49.361Z,2.03
2022-12-06T15:26:17.007Z,4.75
2022-12-06T15:28:44.440Z,4.78
2022-12-06T15:31:19.069Z,2.47
2022-12-06T15:33:46.726Z,3.83
2022-12-06T15:36:23.064Z,3.60
2022-12-06T15:38:50.586Z,4.43
2022-12-06T15:41:25.597Z,8.15
2022-12-06T15:43:53.990Z,5.38
2022-12-06T15:46:24.427Z,1.60
2022-12-06T15:48:53.162Z,7.10
2022-12-06T15:51:27.116Z,2.47
2022-12-06T15:53:56.648Z,2.17
2022-12-06T15:56:27.339Z,2.92
2022-12-06T15:58:54.632Z,1.38
2022-12-06T16:01:32.860Z,0.93
2022-12-06T16:04:00.632Z,2.50
2022-12-06T16:06:29.503Z,3.42
2022-12-06T16:08:57.005Z,1.23
2022-12-06T16:11:26.128Z,6.38
2022-12-06T16:13:53.669Z,3.83
2022-12-06T16:16:22.812Z,10.15
2022-12-06T16:18:50.384Z,18.13
2022-12-06T16:21:22.316Z,12.50
2022-12-06T16:24:17.207Z,5.20
2022-12-06T16:26:45.753Z,6.65
2022-12-06T16:29:17.067Z,1.08
2022-12-06T16:31:45.405Z,2.38
2022-12-06T16:34:12.875Z,4.85
2022-12-06T16:36:59.738Z,2.95
2022-12-06T16:39:28.340Z,4.18
2022-12-06T16:41:55.586Z,3.28
2022-12-06T16:44:23.051Z,3.42
2022-12-06T16:46:50.555Z,3.05
2022-12-06T16:49:45.671Z,4.93
2022-12-06T16:52:09.593Z,4.70
2022-12-06T16:54:39.046Z,5.80
2022-12-06T16:57:06.246Z,5.63
2022-12-06T16:59:34.121Z,1.30
2022-12-06T17:02:01.761Z,4.30
2022-12-06T17:04:31.569Z,2.97
2022-12-06T17:06:58.921Z,6.72
2022-12-06T17:09:27.139Z,8.13
2022-12-06T17:12:03.145Z,5.75
2022-12-06T17:14:30.547Z,9.25
2022-12-06T17:17:02.095Z,10.68
2022-12-06T17:19:31.224Z,6.32
2022-12-06T17:21:59.161Z,10.00
2022-12-06T17:24:27.247Z,10.55
2022-12-06T17:26:55.286Z,7.15
2022-12-06T17:29:23.764Z,4.72
2022-12-06T17:31:51.998Z,7.80
2022-12-06T17:34:20.269Z,7.35
2022-12-06T17:36:49.058Z,12.32
2022-12-06T17:39:19.532Z,6.63
2022-12-06T17:42:05.959Z,8.02
2022-12-06T17:44:34.164Z,9.68
2022-12-06T17:47:02.050Z,9.25
2022-12-06T17:49:29.577Z,7.47
2022-12-06T17:51:57.147Z,8.13
2022-12-06T17:54:24.697Z,7.40
2022-12-06T17:56:53.900Z,5.88
2022-12-06T17:59:32.092Z,3.90
2022-12-06T18:02:17.308Z,6.13
2022-12-06T18:04:45.973Z,8.73
2022-12-06T18:07:13.694Z,7.97
2022-12-06T18:09:41.345Z,3.70
2022-12-06T18:12:13.043Z,4.20
2022-12-06T18:14:40.338Z,10.73
2022-12-06T18:17:07.633Z,5.18
2022-12-06T18:19:35.315Z,6.95
2022-12-06T18:22:02.630Z,7.88
2022-12-06T18:24:35.415Z,7.93
2022-12-06T18:27:04.533Z,5.78
2022-12-06T18:29:32.565Z,6.25
2022-12-06T18:31:59.867Z,5.68
2022-12-06T18:34:27.105Z,11.45
2022-12-06T18:36:54.335Z,13.13
2022-12-06T18:39:24.955Z,10.63
2022-12-06T18:41:53.999Z,15.82
2022-12-06T18:44:21.768Z,10.55
2022-12-06T18:46:49.087Z,11.73
2022-12-06T18:49:16.416Z,10.45
2022-12-06T18:51:43.608Z,10.80
2022-12-06T18:54:13.864Z,9.65
2022-12-06T18:56:42.494Z,10.98
2022-12-06T18:59:11.426Z,9.93
2022-12-06T19:01:40.677Z,13.82
2022-12-06T19:04:09.786Z,11.05
2022-12-06T19:06:38.287Z,15.38
2022-12-06T19:09:10.879Z,17.67
2022-12-06T19:11:40.875Z,13.82
2022-12-06T19:14:08.263Z,21.00
2022-12-06T19:16:36.892Z,17.52
2022-12-06T19:19:09.992Z,18.98
2022-12-06T19:21:40.132Z,15.68
2022-12-06T19:24:07.640Z,19.50
2022-12-06T19:26:35.570Z,18.02
2022-12-06T19:29:03.796Z,21.10
2022-12-06T19:31:31.053Z,21.55
2022-12-06T19:33:58.308Z,22.70
2022-12-06T19:36:30.955Z,19.50
2022-12-06T19:38:59.980Z,18.75
2022-12-06T19:41:27.980Z,21.38
2022-12-06T19:44:13.609Z,19.05
2022-12-06T19:46:45.935Z,16.92
2022-12-06T19:49:14.322Z,17.88
2022-12-06T19:51:44.128Z,19.77
2022-12-06T19:54:15.400Z,13.88
2022-12-06T19:56:42.739Z,12.65
2022-12-06T19:59:12.975Z,11.15
2022-12-06T20:01:44.835Z,19.30
2022-12-06T20:04:23.599Z,18.92
2022-12-06T20:06:52.506Z,15.45
2022-12-06T20:09:22.676Z,17.38
2022-12-06T20:12:02.577Z,15.30
2022-12-06T20:14:40.847Z,15.30
2022-12-06T20:17:11.152Z,18.65
2022-12-06T20:19:38.939Z,17.63
2022-12-06T20:22:06.406Z,15.00
2022-12-06T20:24:33.716Z,18.98
2022-12-06T20:27:01.123Z,16.73
2022-12-06T20:29:30.160Z,12.52
2022-12-06T20:31:59.277Z,12.50
2022-12-06T20:34:29.671Z,15.20
2022-12-06T20:36:57.303Z,18.30
2022-12-06T20:39:26.918Z,16.60
2022-12-06T20:41:54.897Z,19.10
2022-12-06T20:44:22.357Z,13.05
2022-12-06T20:46:50.293Z,13.23
2022-12-06T20:49:17.985Z,15.82
2022-12-06T20:51:51.075Z,22.10
2022-12-06T20:54:20.019Z,14.00
2022-12-06T20:56:50.922Z,14.38
2022-12-06T20:59:18.157Z,17.65
2022-12-06T21:01:45.487Z,17.15
2022-12-06T21:04:14.025Z,12.00
2022-12-06T21:06:41.630Z,16.35
2022-12-06T21:09:09.401Z,22.90
2022-12-06T21:11:36.971Z,18.55
2022-12-06T21:14:05.622Z,11.98
2022-12-06T21:16:34.342Z,22.85
2022-12-06T21:19:07.186Z,17.23
2022-12-06T21:21:37.667Z,18.88
2022-12-06T21:24:07.486Z,16.02
2022-12-06T21:26:35.484Z,22.80
2022-12-06T21:29:03.587Z,20.70
2022-12-06T21:31:33.859Z,14.85
2022-12-06T21:34:01.905Z,18.08
2022-12-06T21:36:29.321Z,19.35
2022-12-06T21:38:57.640Z,17.50
2022-12-06T21:41:25.313Z,14.20
2022-12-06T21:43:52.940Z,16.15
2022-12-06T21:46:22.359Z,14.32
2022-12-06T21:48:51.650Z,19.45
2022-12-06T21:51:19.844Z,13.82
2022-12-06T21:53:47.298Z,20.27
2022-12-06T21:56:34.951Z,14.02
2022-12-06T21:59:02.256Z,11.00
2022-12-06T22:01:31.171Z,20.05
2022-12-06T22:04:01.500Z,15.60
2022-12-06T22:06:29.203Z,15.60
2022-12-06T22:09:02.007Z,7.45
2022-12-06T22:11:30.211Z,14.15
2022-12-06T22:14:01.812Z,13.85
2022-12-06T22:16:29.559Z,11.23
2022-12-06T22:18:57.976Z,16.20
2022-12-06T22:21:28.865Z,11.90
2022-12-06T22:24:00.151Z,15.88
2022-12-06T22:26:30.586Z,11.50
2022-12-06T22:28:59.856Z,8.45
2022-12-06T22:31:29.922Z,18.75
2022-12-06T22:33:57.922Z,16.58
2022-12-06T22:36:25.133Z,7.40
2022-12-06T22:38:54.677Z,10.10
2022-12-06T22:41:23.311Z,14.95
2022-12-06T22:43:52.320Z,8.77
2022-12-06T22:46:20.376Z,12.10
2022-12-06T22:48:48.183Z,13.55
2022-12-06T22:51:17.092Z,13.10
2022-12-06T22:53:46.807Z,7.80
2022-12-06T22:56:15.277Z,16.92
2022-12-06T22:58:42.703Z,12.60
2022-12-06T23:01:18.494Z,11.32
2022-12-06T23:03:47.638Z,11.95
2022-12-06T23:06:16.436Z,10.82
2022-12-06T23:08:44.030Z,8.63
2022-12-06T23:11:14.123Z,13.48
2022-12-06T23:13:41.936Z,9.43
2022-12-06T23:16:14.309Z,10.70
2022-12-06T23:18:42.590Z,9.82
2022-12-06T23:21:26.736Z,11.25
2022-12-06T23:24:02.214Z,11.27
2022-12-06T23:26:43.954Z,11.13
2022-12-06T23:29:11.337Z,9.75
2022-12-06T23:31:41.109Z,13.90
2022-12-06T23:34:23.140Z,14.55
2022-12-06T23:36:50.550Z,9.45
2022-12-06T23:39:17.879Z,15.60
2022-12-06T23:41:45.223Z,14.73
2022-12-06T23:44:13.133Z,15.63
2022-12-06T23:46:41.757Z,11.73
2022-12-06T23:49:17.422Z,10.18
2022-12-06T23:51:45.097Z,11.55
2022-12-06T23:54:13.796Z,16.63
2022-12-06T23:56:42.487Z,16.33
2022-12-06T23:59:12.050Z,12.80
